Time;durP1;ratioP1;P1;durP2;ratioP2;P2;SDS_P1;SDS_P2;PMS_P1;PMS_P2;Temp;Humidity;BMP_temperature;BMP_pressure;BME280_temperature;BME280_humidity;BME280_pressure;Samples;Min_cycle;Max_cycle;Signal;HPM_P1;HPM_P2
2024/01/08 00:01:35;;;;;;;11.70;4.70;;;-0.40;99.90;;;;;;5091070;28;20558;-83
2024/01/08 00:04:01;;;;;;;8.30;4.63;;;-0.40;99.90;;;;;;5090918;28;20058;-83
2024/01/08 00:06:27;;;;;;;7.63;4.20;;;-0.40;99.90;;;;;;5090954;28;20048;-83
2024/01/08 00:08:52;;;;;;;9.43;4.33;;;-0.30;99.90;;;;;;5091531;28;20047;-83
2024/01/08 00:11:18;;;;;;;10.23;4.87;;;-0.40;99.90;;;;;;5093401;28;20156;-83
2024/01/08 00:13:44;;;;;;;8.20;4.63;;;-0.30;99.90;;;;;;5092969;28;20067;-83
2024/01/08 00:16:09;;;;;;;7.93;4.63;;;-0.30;99.90;;;;;;5093114;28;20051;-83
2024/01/08 00:18:35;;;;;;;8.00;4.77;;;-0.40;99.90;;;;;;5092328;28;20089;-83
2024/01/08 00:21:02;;;;;;;7.67;4.60;;;-0.40;99.90;;;;;;5091894;28;20470;-83
2024/01/08 00:23:29;;;;;;;8.77;4.50;;;-0.40;99.90;;;;;;5092232;28;20109;-84
2024/01/08 00:25:55;;;;;;;9.48;4.75;;;-0.40;99.90;;;;;;5092027;28;20056;-83
2024/01/08 00:28:21;;;;;;;7.57;4.30;;;-0.40;99.90;;;;;;5075379;28;20058;-83
2024/01/08 00:30:46;;;;;;;9.40;4.70;;;-0.40;99.90;;;;;;5092817;28;20044;-83
2024/01/08 00:33:12;;;;;;;9.17;4.33;;;-0.40;99.90;;;;;;5093053;28;20036;-84
2024/01/08 00:35:38;;;;;;;10.17;4.37;;;-0.30;99.90;;;;;;5092948;28;20046;-84
2024/01/08 00:38:04;;;;;;;11.13;4.60;;;-0.40;99.90;;;;;;5091854;28;20482;-83
2024/01/08 00:40:30;;;;;;;7.00;4.20;;;-0.30;99.90;;;;;;5091716;28;20444;-83
2024/01/08 00:42:57;;;;;;;9.90;4.70;;;-0.30;99.90;;;;;;5072923;28;20444;-83
2024/01/08 00:45:23;;;;;;;10.20;4.82;;;-0.30;99.90;;;;;;5090674;28;20056;-83
2024/01/08 00:47:49;;;;;;;8.60;4.20;;;-0.30;99.90;;;;;;5090438;28;20451;-83
2024/01/08 00:50:15;;;;;;;10.18;4.43;;;-0.30;99.90;;;;;;5090601;28;20305;-83
2024/01/08 00:52:41;;;;;;;7.78;4.35;;;-0.30;99.90;;;;;;5090715;28;20422;-83
2024/01/08 00:55:08;;;;;;;7.80;4.40;;;-0.30;99.90;;;;;;5090697;28;20044;-83
2024/01/08 00:57:34;;;;;;;9.70;4.32;;;-0.40;99.90;;;;;;5092148;28;20111;-83
2024/01/08 01:00:00;;;;;;;10.68;4.45;;;-0.30;99.90;;;;;;5091491;28;20121;-83
2024/01/08 01:02:25;;;;;;;9.23;4.60;;;-0.30;99.90;;;;;;5092641;28;20051;-84
2024/01/08 01:04:51;;;;;;;9.63;4.40;;;-0.30;99.90;;;;;;5092419;28;20055;-83
2024/01/08 01:07:17;;;;;;;8.27;4.30;;;-0.20;99.90;;;;;;5093119;28;20123;-83
2024/01/08 01:09:43;;;;;;;8.80;4.53;;;-0.40;99.90;;;;;;5091606;28;20485;-83
2024/01/08 01:12:09;;;;;;;9.03;4.50;;;-0.30;99.90;;;;;;5095015;28;20043;-83
2024/01/08 01:14:35;;;;;;;7.15;3.72;;;-0.40;99.90;;;;;;5095767;28;20133;-83
2024/01/08 01:17:01;;;;;;;7.07;4.13;;;-0.40;99.90;;;;;;5096170;28;20086;-83
2024/01/08 01:19:27;;;;;;;9.45;4.78;;;-0.50;99.90;;;;;;5095075;28;20282;-83
2024/01/08 01:21:53;;;;;;;10.03;4.80;;;-0.50;99.90;;;;;;5096035;28;20058;-83
2024/01/08 01:24:19;;;;;;;8.87;4.30;;;-0.50;99.90;;;;;;5096239;28;20048;-83
2024/01/08 01:26:45;;;;;;;10.43;5.10;;;-0.50;99.90;;;;;;5096221;28;20043;-84
2024/01/08 01:29:10;;;;;;;11.73;4.70;;;-0.60;99.90;;;;;;5095877;28;20561;-84
2024/01/08 01:31:36;;;;;;;9.03;4.50;;;-0.60;99.90;;;;;;5095910;28;20052;-84
2024/01/08 01:34:03;;;;;;;12.50;4.90;;;-0.60;99.90;;;;;;5095746;28;20067;-84
2024/01/08 01:36:29;;;;;;;7.82;4.60;;;-0.60;99.90;;;;;;5094928;28;20493;-84
2024/01/08 01:38:55;;;;;;;10.63;4.47;;;-0.60;99.90;;;;;;5095037;28;20051;-84
2024/01/08 01:41:21;;;;;;;10.33;5.17;;;-0.70;99.90;;;;;;5094985;28;20066;-84
2024/01/08 01:43:46;;;;;;;10.10;4.37;;;-0.70;99.90;;;;;;5094893;28;20048;-84
2024/01/08 01:46:41;;;;;;;14.23;5.47;;;-0.70;99.90;;;;;;5095649;28;20048;-84
2024/01/08 01:49:19;;;;;;;8.25;5.07;;;-0.80;99.90;;;;;;5094828;28;20059;-84
2024/01/08 01:51:47;;;;;;;9.23;4.90;;;-0.80;99.90;;;;;;5095657;28;20043;-84
2024/01/08 01:54:15;;;;;;;8.43;4.60;;;-0.70;99.90;;;;;;5095291;28;20044;-84
2024/01/08 01:56:43;;;;;;;7.38;4.28;;;-0.80;99.90;;;;;;5094455;28;20044;-84
2024/01/08 01:59:10;;;;;;;9.88;5.10;;;-0.80;99.90;;;;;;5094532;28;20113;-84
2024/01/08 02:01:36;;;;;;;8.02;4.38;;;-0.90;99.90;;;;;;5096026;28;20048;-84
2024/01/08 02:04:03;;;;;;;8.48;4.40;;;-0.90;99.90;;;;;;5094318;28;20044;-84
2024/01/08 02:06:29;;;;;;;8.77;4.25;;;-0.90;99.90;;;;;;5094283;28;20413;-84
2024/01/08 02:08:55;;;;;;;9.40;5.10;;;-0.90;99.90;;;;;;5095262;28;20070;-84
2024/01/08 02:11:21;;;;;;;8.93;4.70;;;-0.90;99.90;;;;;;5094107;28;20508;-84
2024/01/08 02:13:48;;;;;;;9.27;4.15;;;-0.90;99.90;;;;;;5095457;28;20044;-83
2024/01/08 02:16:15;;;;;;;7.85;3.97;;;-0.90;99.90;;;;;;5095097;28;20051;-83
2024/01/08 02:18:40;;;;;;;8.13;4.30;;;-0.90;99.90;;;;;;5094392;28;20051;-83
2024/01/08 02:21:06;;;;;;;9.40;4.70;;;-0.90;99.90;;;;;;5095060;28;20405;-83
2024/01/08 02:23:33;;;;;;;9.47;4.73;;;-1.00;99.90;;;;;;5094906;28;20036;-83
2024/01/08 02:25:58;;;;;;;9.48;5.25;;;-0.90;99.90;;;;;;5094742;28;20054;-83
2024/01/08 02:28:24;;;;;;;9.97;4.90;;;-0.80;99.90;;;;;;5094557;28;20056;-83
2024/01/08 02:30:50;;;;;;;13.30;5.63;;;-0.80;99.90;;;;;;5095170;28;20044;-83
2024/01/08 02:33:15;;;;;;;8.67;4.83;;;-0.90;99.90;;;;;;5093612;28;20048;-83
2024/01/08 02:35:41;;;;;;;9.80;5.37;;;-0.90;99.90;;;;;;5093930;28;20485;-83
2024/01/08 02:38:07;;;;;;;8.63;5.30;;;-0.90;99.90;;;;;;5094735;28;20079;-82
2024/01/08 02:40:33;;;;;;;11.07;5.77;;;-0.80;99.90;;;;;;5093340;28;20055;-82
2024/01/08 02:42:58;;;;;;;10.03;5.07;;;-0.80;99.90;;;;;;5093337;28;20040;-82
2024/01/08 02:45:24;;;;;;;10.53;5.60;;;-0.80;99.90;;;;;;5092311;28;20071;-82
2024/01/08 02:47:50;;;;;;;8.87;5.53;;;-0.80;99.90;;;;;;5091560;28;20052;-82
2024/01/08 02:50:16;;;;;;;11.63;5.87;;;-0.80;99.90;;;;;;5091373;28;20150;-82
2024/01/08 02:52:44;;;;;;;9.30;5.40;;;-0.90;99.90;;;;;;5092248;28;20112;-82
2024/01/08 02:55:10;;;;;;;10.13;5.32;;;-0.90;99.90;;;;;;5092359;28;20079;-83
2024/01/08 02:57:36;;;;;;;10.07;5.63;;;-0.80;99.90;;;;;;5091995;28;20109;-82
2024/01/08 03:00:04;;;;;;;8.57;5.13;;;-0.70;99.90;;;;;;5093491;28;20099;-83
2024/01/08 03:02:31;;;;;;;10.95;6.13;;;-0.70;99.90;;;;;;5093514;28;20075;-82
2024/01/08 03:04:56;;;;;;;9.15;5.20;;;-0.80;99.90;;;;;;5094370;28;20078;-83
2024/01/08 03:07:22;;;;;;;10.30;5.97;;;-0.80;99.90;;;;;;5094117;28;20505;-82
2024/01/08 03:09:48;;;;;;;10.00;5.57;;;-0.70;99.90;;;;;;5076224;28;20044;-83
2024/01/08 03:12:15;;;;;;;11.05;5.30;;;-0.70;99.90;;;;;;5094039;28;20040;-82
2024/01/08 03:14:41;;;;;;;8.85;5.43;;;-0.60;99.90;;;;;;5094167;28;20052;-82
2024/01/08 03:17:07;;;;;;;11.88;6.07;;;-0.70;99.90;;;;;;5093969;28;20059;-82
2024/01/08 03:19:33;;;;;;;10.13;5.57;;;-0.70;99.90;;;;;;5094115;28;20058;-83
2024/01/08 03:22:02;;;;;;;9.90;5.93;;;-0.70;99.90;;;;;;5094282;28;20123;-82
2024/01/08 03:24:28;;;;;;;8.95;5.50;;;-0.70;99.90;;;;;;5093872;28;20435;-82
2024/01/08 03:26:54;;;;;;;9.65;5.13;;;-0.60;99.90;;;;;;5094184;28;20047;-82
2024/01/08 03:29:19;;;;;;;8.93;5.13;;;-0.60;99.90;;;;;;5093747;28;20420;-82
2024/01/08 03:31:45;;;;;;;11.93;5.80;;;-0.70;99.90;;;;;;5092667;28;20127;-82
2024/01/08 03:34:12;;;;;;;11.07;6.30;;;-0.70;99.90;;;;;;5093072;28;20054;-82
2024/01/08 03:36:38;;;;;;;9.57;5.82;;;-0.70;99.90;;;;;;5092885;28;20127;-82
2024/01/08 03:39:03;;;;;;;11.07;5.57;;;-0.70;99.90;;;;;;5093334;28;20056;-82
2024/01/08 03:41:29;;;;;;;9.80;5.97;;;-0.70;99.90;;;;;;5093758;28;20036;-83
2024/01/08 03:43:55;;;;;;;11.03;6.10;;;-0.60;99.90;;;;;;5093463;28;20052;-83
2024/01/08 03:46:21;;;;;;;11.70;6.03;;;-0.70;99.90;;;;;;5093591;28;20493;-83
2024/01/08 03:48:46;;;;;;;11.07;5.63;;;-0.60;99.90;;;;;;5092698;28;20059;-82
2024/01/08 03:51:12;;;;;;;12.00;6.33;;;-0.60;99.90;;;;;;5093388;28;20044;-82
2024/01/08 03:53:38;;;;;;;9.57;5.73;;;-0.60;99.90;;;;;;5093315;28;20092;-82
2024/01/08 03:56:04;;;;;;;11.67;6.27;;;-0.60;99.90;;;;;;5092440;28;20048;-82
2024/01/08 03:58:30;;;;;;;13.20;6.53;;;-0.60;99.90;;;;;;5092562;28;20048;-83
2024/01/08 04:00:56;;;;;;;9.43;6.03;;;-0.60;99.90;;;;;;5093581;28;20520;-83
2024/01/08 04:03:22;;;;;;;8.97;6.00;;;-0.70;99.90;;;;;;5093118;28;20040;-83
2024/01/08 04:05:48;;;;;;;10.83;6.30;;;-0.50;99.90;;;;;;5092281;28;20105;-83
2024/01/08 04:08:14;;;;;;;11.52;6.03;;;-0.50;99.90;;;;;;5091821;28;20048;-83
2024/01/08 04:10:39;;;;;;;9.90;6.00;;;-0.50;99.90;;;;;;5093403;28;20046;-83
2024/01/08 04:13:05;;;;;;;10.87;6.10;;;-0.60;99.90;;;;;;5091876;28;20083;-83
2024/01/08 04:15:31;;;;;;;9.70;6.10;;;-0.50;99.90;;;;;;5092298;28;20058;-83
2024/01/08 04:17:57;;;;;;;9.33;6.13;;;-0.50;99.90;;;;;;5092087;28;20051;-82
2024/01/08 04:20:23;;;;;;;10.97;6.13;;;-0.50;99.90;;;;;;5092940;28;20088;-83
2024/01/08 04:22:50;;;;;;;12.53;6.23;;;-0.50;99.90;;;;;;5092919;28;20274;-82
2024/01/08 04:25:16;;;;;;;9.90;5.95;;;-0.50;99.90;;;;;;5092992;28;20122;-83
2024/01/08 04:27:45;;;;;;;10.73;6.30;;;-0.50;99.90;;;;;;5093097;28;20048;-83
2024/01/08 04:30:11;;;;;;;9.38;5.70;;;-0.50;99.90;;;;;;5092857;28;20092;-83
2024/01/08 04:32:37;;;;;;;11.13;5.90;;;-0.50;99.90;;;;;;5092860;28;20507;-83
2024/01/08 04:35:04;;;;;;;12.63;6.80;;;-0.40;99.90;;;;;;5075107;28;20127;-83
2024/01/08 04:37:29;;;;;;;11.20;6.22;;;-0.40;99.90;;;;;;5092764;28;20100;-83
2024/01/08 04:39:55;;;;;;;10.93;6.23;;;-0.40;99.90;;;;;;5093129;28;20497;-83
2024/01/08 04:42:21;;;;;;;9.67;5.47;;;-0.40;99.90;;;;;;5092913;28;20136;-83
2024/01/08 04:44:47;;;;;;;11.70;5.90;;;-0.30;99.90;;;;;;5091481;28;20056;-83
2024/01/08 04:47:13;;;;;;;10.60;5.60;;;-0.40;99.90;;;;;;5095383;28;20052;-83
2024/01/08 04:49:39;;;;;;;10.67;5.87;;;-0.30;99.90;;;;;;5096782;28;20519;-83
2024/01/08 04:52:05;;;;;;;9.52;5.82;;;-0.20;99.90;;;;;;5095659;28;20482;-83
2024/01/08 04:54:31;;;;;;;9.73;5.43;;;-0.30;99.90;;;;;;5096810;28;20097;-82
2024/01/08 04:56:56;;;;;;;9.63;5.10;;;-0.30;99.90;;;;;;5096870;28;20105;-82
2024/01/08 04:59:22;;;;;;;11.53;4.87;;;-0.20;99.90;;;;;;5096604;28;20050;-82
2024/01/08 05:01:49;;;;;;;11.50;5.40;;;-0.20;99.90;;;;;;5095698;28;20055;-83
2024/01/08 05:04:15;;;;;;;10.23;5.00;;;-0.20;99.90;;;;;;5096515;28;20101;-82
2024/01/08 05:06:41;;;;;;;9.70;4.30;;;-0.20;99.90;;;;;;5096577;28;20047;-82
2024/01/08 05:09:08;;;;;;;9.05;4.80;;;-0.10;99.90;;;;;;5095692;28;20282;-82
2024/01/08 05:11:34;;;;;;;8.23;5.03;;;-0.20;99.90;;;;;;5095402;28;20044;-82
2024/01/08 05:14:00;;;;;;;10.70;5.47;;;-0.20;99.90;;;;;;5096595;28;20078;-82
2024/01/08 05:16:26;;;;;;;8.80;4.67;;;-0.20;99.90;;;;;;5095101;28;20083;-83
2024/01/08 05:18:51;;;;;;;10.03;5.00;;;-0.20;99.90;;;;;;5078484;28;20052;-83
2024/01/08 05:21:17;;;;;;;9.00;4.77;;;-0.10;99.90;;;;;;5096033;28;20044;-83
2024/01/08 05:23:43;;;;;;;9.20;4.60;;;-0.20;99.90;;;;;;5095389;28;20374;-83
2024/01/08 05:26:08;;;;;;;10.03;4.67;;;-0.20;99.90;;;;;;5095086;28;20397;-82
2024/01/08 05:28:34;;;;;;;8.47;4.53;;;-0.20;99.90;;;;;;5094974;28;20056;-82
2024/01/08 05:31:00;;;;;;;8.77;3.60;;;-0.20;99.90;;;;;;5096262;28;20051;-82
2024/01/08 05:33:26;;;;;;;9.00;4.00;;;-0.20;99.90;;;;;;5095746;28;20448;-82
2024/01/08 05:35:51;;;;;;;9.73;4.57;;;-0.10;99.90;;;;;;5095898;28;20051;-83
2024/01/08 05:38:17;;;;;;;12.20;4.80;;;-0.30;99.90;;;;;;5094879;28;20126;-82
2024/01/08 05:40:43;;;;;;;5.77;3.23;;;-0.30;99.90;;;;;;5096094;28;20048;-82
2024/01/08 05:43:09;;;;;;;9.30;4.00;;;-0.30;99.90;;;;;;5096009;28;20105;-82
2024/01/08 05:45:34;;;;;;;8.63;3.60;;;-0.30;99.90;;;;;;5095653;28;20657;-82
2024/01/08 05:48:00;;;;;;;7.20;4.13;;;-0.50;99.90;;;;;;5095771;28;20123;-82
2024/01/08 05:50:27;;;;;;;9.23;3.73;;;-0.40;99.90;;;;;;5095394;28;20476;-83
2024/01/08 05:52:56;;;;;;;8.27;3.45;;;-0.40;99.90;;;;;;5094759;28;20520;-82
2024/01/08 05:55:23;;;;;;;7.80;3.30;;;-0.50;99.90;;;;;;5095710;28;20040;-82
2024/01/08 05:57:49;;;;;;;6.85;3.55;;;-0.60;99.90;;;;;;5095509;28;20099;-82
2024/01/08 06:00:16;;;;;;;8.50;3.22;;;-0.60;99.90;;;;;;5095643;28;20044;-81
2024/01/08 06:02:42;;;;;;;5.85;3.33;;;-0.60;99.90;;;;;;5094667;28;20378;-82
2024/01/08 06:05:08;;;;;;;9.93;3.40;;;-0.70;99.90;;;;;;5095457;28;20089;-82
2024/01/08 06:07:34;;;;;;;7.95;3.88;;;-0.70;99.90;;;;;;5094525;28;20040;-82
2024/01/08 06:10:00;;;;;;;7.23;3.80;;;-0.80;99.90;;;;;;5094543;28;20044;-82
2024/01/08 06:12:25;;;;;;;11.10;4.30;;;-0.70;99.90;;;;;;5094138;28;20494;-82
2024/01/08 06:14:51;;;;;;;10.07;3.67;;;-0.80;99.90;;;;;;5095523;28;20054;-81
2024/01/08 06:17:17;;;;;;;7.23;3.70;;;-0.80;99.90;;;;;;5095188;28;20052;-81
2024/01/08 06:19:43;;;;;;;8.27;3.87;;;-0.80;99.90;;;;;;5095001;28;20137;-81
2024/01/08 06:22:09;;;;;;;9.30;4.00;;;-0.80;99.90;;;;;;5095465;28;20094;-81
2024/01/08 06:24:35;;;;;;;7.30;3.63;;;-0.70;99.90;;;;;;5095183;28;20550;-81
2024/01/08 06:27:00;;;;;;;9.73;4.20;;;-1.00;99.90;;;;;;5095232;28;20286;-81
2024/01/08 06:29:26;;;;;;;8.47;4.20;;;-1.00;99.90;;;;;;5093873;28;20481;-82
2024/01/08 06:31:52;;;;;;;9.03;4.23;;;-0.90;99.90;;;;;;5093889;28;20044;-81
2024/01/08 06:34:18;;;;;;;7.53;4.33;;;-1.00;99.90;;;;;;5094013;28;20467;-82
2024/01/08 06:36:43;;;;;;;7.60;4.20;;;-1.00;99.90;;;;;;5094814;28;20040;-81
2024/01/08 06:39:12;;;;;;;12.27;4.27;;;-1.00;99.90;;;;;;5093745;28;20051;-81
2024/01/08 06:41:37;;;;;;;7.50;4.45;;;-1.00;99.90;;;;;;5094696;28;20417;-82
2024/01/08 06:44:04;;;;;;;8.23;3.97;;;-1.10;99.90;;;;;;5094682;28;20060;-80
2024/01/08 06:46:30;;;;;;;12.20;4.00;;;-1.10;99.90;;;;;;5093148;28;20063;-81
2024/01/08 06:48:56;;;;;;;7.23;3.93;;;-1.10;99.90;;;;;;5094776;28;20044;-81
2024/01/08 06:51:21;;;;;;;8.50;4.45;;;-1.10;99.90;;;;;;5093973;28;20048;-81
2024/01/08 06:53:47;;;;;;;8.80;4.07;;;-1.10;99.90;;;;;;5093369;28;20051;-82
2024/01/08 06:56:13;;;;;;;9.00;4.63;;;-1.10;99.90;;;;;;5094666;28;20059;-81
2024/01/08 06:58:39;;;;;;;9.10;4.47;;;-1.00;99.90;;;;;;5076614;28;20783;-81
2024/01/08 07:01:05;;;;;;;8.07;3.60;;;-1.10;99.90;;;;;;5094355;28;20054;-81
2024/01/08 07:03:31;;;;;;;9.27;4.43;;;-1.10;99.90;;;;;;5094105;28;20044;-81
2024/01/08 07:05:57;;;;;;;11.40;4.38;;;-1.00;99.90;;;;;;5094411;28;20127;-81
2024/01/08 07:08:23;;;;;;;8.87;4.43;;;-1.00;99.90;;;;;;5093696;28;20132;-81
2024/01/08 07:10:49;;;;;;;8.20;4.13;;;-1.10;99.90;;;;;;5092989;28;20787;-81
2024/01/08 07:13:15;;;;;;;10.25;4.25;;;-1.10;99.90;;;;;;5093081;28;20040;-81
2024/01/08 07:15:48;;;;;;;14.45;3.90;;;-1.10;99.90;;;;;;5094055;28;20090;-81
2024/01/08 07:18:15;;;;;;;8.88;4.00;;;-1.00;99.90;;;;;;5094322;28;20048;-81
2024/01/08 07:20:41;;;;;;;8.50;4.43;;;-0.90;99.90;;;;;;5093973;28;20048;-81
2024/01/08 07:23:09;;;;;;;8.02;3.65;;;-1.00;99.90;;;;;;5093084;28;20040;-81
2024/01/08 07:25:35;;;;;;;9.15;4.05;;;-1.00;99.90;;;;;;5093898;28;20439;-82
2024/01/08 07:28:01;;;;;;;11.05;4.30;;;-0.90;99.90;;;;;;5094021;28;20417;-81
2024/01/08 07:30:27;;;;;;;9.27;4.70;;;-0.90;99.90;;;;;;5075832;28;20043;-81
2024/01/08 07:32:52;;;;;;;11.93;5.20;;;-0.90;99.90;;;;;;5094162;28;20087;-81
2024/01/08 07:35:18;;;;;;;8.27;4.23;;;-0.90;99.90;;;;;;5094028;28;20135;-80
2024/01/08 07:37:44;;;;;;;10.67;4.83;;;-0.90;99.90;;;;;;5093811;28;20094;-81
2024/01/08 07:40:10;;;;;;;9.53;4.20;;;-0.80;99.90;;;;;;5093825;28;20083;-81
2024/01/08 07:42:35;;;;;;;11.00;4.68;;;-0.90;99.90;;;;;;5092530;28;20066;-82
2024/01/08 07:45:01;;;;;;;10.27;5.10;;;-0.80;99.90;;;;;;5093330;28;20064;-81
2024/01/08 07:47:27;;;;;;;13.17;4.83;;;-0.80;99.90;;;;;;5093960;28;20059;-82
2024/01/08 07:49:54;;;;;;;9.10;4.30;;;-0.80;99.90;;;;;;5093478;28;20058;-81
2024/01/08 07:52:19;;;;;;;8.80;4.03;;;-0.70;99.90;;;;;;5093641;28;20096;-81
2024/01/08 07:54:45;;;;;;;11.53;4.20;;;-0.70;99.90;;;;;;5092096;28;20040;-81
2024/01/08 07:57:11;;;;;;;8.03;4.07;;;-0.60;99.90;;;;;;5093439;28;20048;-80
2024/01/08 07:59:36;;;;;;;9.20;4.27;;;-0.60;99.90;;;;;;5092081;28;20077;-81
2024/01/08 08:02:02;;;;;;;13.57;4.60;;;-0.60;99.90;;;;;;5092495;28;20117;-81
2024/01/08 08:04:28;;;;;;;7.77;4.47;;;-0.60;99.90;;;;;;5093623;28;20050;-81
2024/01/08 08:06:54;;;;;;;11.33;4.80;;;-0.60;99.90;;;;;;5093217;28;20044;-80
2024/01/08 08:09:20;;;;;;;9.23;3.90;;;-0.60;99.90;;;;;;5093562;28;20131;-80
2024/01/08 08:11:45;;;;;;;10.97;4.03;;;-0.50;99.90;;;;;;5093120;28;20048;-80
2024/01/08 08:14:12;;;;;;;8.93;3.53;;;-0.50;99.90;;;;;;5093162;28;20044;-80
2024/01/08 08:16:39;;;;;;;7.32;3.60;;;-0.50;99.90;;;;;;5093293;28;20108;-80
2024/01/08 08:19:05;;;;;;;10.95;4.68;;;-0.50;99.90;;;;;;5093109;28;20090;-77
2024/01/08 08:21:30;;;;;;;8.57;3.63;;;-0.50;99.90;;;;;;5093041;28;20446;-81
2024/01/08 08:23:57;;;;;;;9.97;3.70;;;-0.40;99.90;;;;;;5092972;28;20493;-82
2024/01/08 08:26:24;;;;;;;11.77;4.22;;;-0.30;99.90;;;;;;5093113;28;20486;-82
2024/01/08 08:28:50;;;;;;;10.40;4.00;;;-0.30;99.90;;;;;;5092937;28;20048;-82
2024/01/08 08:31:15;;;;;;;10.57;3.93;;;-0.30;99.90;;;;;;5092519;28;20048;-81
2024/01/08 08:33:42;;;;;;;10.53;3.90;;;-0.20;99.90;;;;;;5091712;28;20066;-81
2024/01/08 08:36:08;;;;;;;9.93;4.03;;;-0.20;99.90;;;;;;5091926;28;20122;-80
2024/01/08 08:38:35;;;;;;;11.10;4.03;;;-0.20;99.90;;;;;;5093028;28;20087;-80
2024/01/08 08:41:02;;;;;;;12.63;4.20;;;-0.20;99.90;;;;;;5093134;28;20048;-79
2024/01/08 08:43:30;;;;;;;10.85;4.18;;;-0.10;99.90;;;;;;5091808;28;20127;-80
2024/01/08 08:45:56;;;;;;;10.10;3.85;;;-0.10;99.90;;;;;;5091541;28;20063;-80
2024/01/08 08:48:22;;;;;;;10.13;3.70;;;-0.10;99.90;;;;;;5093147;28;20131;-80
2024/01/08 08:50:48;;;;;;;8.77;3.70;;;-0.10;99.90;;;;;;5091773;28;20087;-80
2024/01/08 08:53:13;;;;;;;11.87;4.03;;;0.00;99.90;;;;;;5092813;28;20442;-81
2024/01/08 08:55:39;;;;;;;10.23;3.87;;;0.00;99.90;;;;;;5092754;28;20042;-80
2024/01/08 08:58:09;;;;;;;9.30;3.80;;;-0.10;99.90;;;;;;5092746;28;20077;-81
2024/01/08 09:00:37;;;;;;;8.30;3.38;;;-0.10;99.90;;;;;;5092941;28;20048;-81
2024/01/08 09:03:03;;;;;;;10.07;4.32;;;0.00;99.90;;;;;;5093092;28;20053;-81
2024/01/08 09:05:30;;;;;;;15.70;5.43;;;0.00;99.90;;;;;;5093064;28;20234;-81
2024/01/08 09:07:56;;;;;;;7.72;3.28;;;0.10;99.90;;;;;;5091516;28;20076;-80
2024/01/08 09:10:22;;;;;;;11.23;3.50;;;0.00;99.90;;;;;;5092796;28;20086;-81
2024/01/08 09:12:47;;;;;;;11.10;3.70;;;0.10;99.90;;;;;;5092301;28;20044;-81
2024/01/08 09:15:13;;;;;;;8.90;3.90;;;0.10;99.90;;;;;;5091757;28;20084;-80
2024/01/08 09:17:40;;;;;;;9.20;3.37;;;0.10;99.90;;;;;;5092667;28;20146;-79
2024/01/08 09:20:09;;;;;;;12.00;4.05;;;0.20;99.90;;;;;;5092723;28;20047;-79
2024/01/08 09:22:35;;;;;;;9.02;3.20;;;0.20;99.90;;;;;;5092646;28;20096;-79
2024/01/08 09:25:01;;;;;;;10.88;3.60;;;0.20;99.90;;;;;;5092404;28;20247;-80
2024/01/08 09:27:27;;;;;;;10.97;4.50;;;0.20;99.90;;;;;;5090834;28;20055;-80
2024/01/08 09:29:53;;;;;;;9.10;4.10;;;0.20;99.90;;;;;;5092404;28;20339;-80
2024/01/08 09:32:19;;;;;;;9.00;3.60;;;0.20;99.90;;;;;;5093678;28;20036;-81
2024/01/08 09:34:45;;;;;;;9.70;3.67;;;0.20;99.90;;;;;;5095943;28;20040;-82
2024/01/08 09:37:10;;;;;;;16.13;3.33;;;0.20;99.90;;;;;;5091194;28;20439;-79
2024/01/08 09:39:36;;;;;;;9.20;3.17;;;0.20;99.90;;;;;;5095753;28;20043;-78
2024/01/08 09:42:04;;;;;;;9.87;3.10;;;0.40;99.90;;;;;;5095002;28;20500;-78
2024/01/08 09:44:32;;;;;;;9.32;3.72;;;0.30;99.90;;;;;;5095493;28;20075;-78
2024/01/08 09:46:59;;;;;;;11.45;3.53;;;0.30;99.90;;;;;;5095525;28;20413;-79
2024/01/08 09:49:29;;;;;;;11.75;3.53;;;0.30;99.90;;;;;;5095445;28;20482;-78
2024/01/08 09:51:55;;;;;;;11.63;3.53;;;0.50;99.90;;;;;;5095569;28;20532;-79
2024/01/08 09:54:21;;;;;;;7.88;2.78;;;0.50;99.90;;;;;;5095131;28;20044;-79
2024/01/08 09:56:53;;;;;;;8.18;3.08;;;0.40;99.90;;;;;;5095537;28;20125;-85
2024/01/08 09:59:19;;;;;;;6.70;2.60;;;0.40;99.90;;;;;;5088351;28;20051;-84
2024/01/08 10:01:44;;;;;;;6.43;2.83;;;0.50;99.90;;;;;;5091191;28;20051;-88
2024/01/08 10:04:10;;;;;;;6.33;2.30;;;0.50;99.90;;;;;;5093277;28;20048;-82
2024/01/08 10:06:38;;;;;;;7.43;2.70;;;0.60;99.90;;;;;;5095025;28;20572;-82
2024/01/08 10:09:04;;;;;;;7.70;2.58;;;0.60;99.90;;;;;;5094251;28;20048;-82
2024/01/08 10:11:30;;;;;;;7.60;2.77;;;0.50;99.90;;;;;;5093022;28;20044;-81
2024/01/08 10:13:56;;;;;;;7.03;2.80;;;0.50;99.90;;;;;;5092872;28;20040;-82
2024/01/08 10:16:25;;;;;;;7.47;2.83;;;0.50;99.90;;;;;;5093871;28;20048;-82
2024/01/08 10:18:51;;;;;;;5.57;2.50;;;0.60;99.90;;;;;;5094072;28;20099;-82
2024/01/08 10:21:17;;;;;;;7.77;2.77;;;0.50;99.90;;;;;;5094118;28;20051;-83
2024/01/08 10:23:46;;;;;;;7.05;3.15;;;0.60;99.90;;;;;;5091728;28;20044;-85
2024/01/08 10:26:13;;;;;;;10.30;2.90;;;0.60;99.90;;;;;;5094062;28;20048;-82
2024/01/08 10:28:40;;;;;;;7.35;2.85;;;0.80;99.90;;;;;;5094061;28;20140;-82
2024/01/08 10:31:08;;;;;;;6.50;2.33;;;0.60;99.90;;;;;;5093703;28;20059;-84
2024/01/08 10:33:35;;;;;;;7.15;2.30;;;0.60;99.90;;;;;;5091219;28;20507;-84
2024/01/08 10:36:04;;;;;;;5.38;2.15;;;0.70;99.90;;;;;;5093228;28;20489;-79
2024/01/08 10:38:34;;;;;;;5.05;2.30;;;0.70;99.90;;;;;;5094971;28;20051;-82
2024/01/08 10:41:01;;;;;;;5.75;2.38;;;0.70;99.90;;;;;;5091457;28;20503;-84
2024/01/08 10:43:28;;;;;;;4.90;2.17;;;0.70;99.90;;;;;;5093516;28;20043;-82
2024/01/08 10:46:02;;;;;;;5.43;2.30;;;0.70;99.90;;;;;;5093422;28;20055;-82
2024/01/08 10:48:34;;;;;;;7.93;2.38;;;0.70;99.90;;;;;;5092720;28;20048;-83
2024/01/08 10:51:03;;;;;;;5.95;2.50;;;0.70;99.90;;;;;;5092255;28;20048;-81
2024/01/08 10:53:47;;;;;;;4.85;2.53;;;0.70;99.90;;;;;;5092421;28;20485;-84
2024/01/08 10:56:15;;;;;;;7.47;2.55;;;0.70;99.90;;;;;;5093662;28;20044;-83
2024/01/08 10:58:43;;;;;;;6.80;2.85;;;0.70;99.90;;;;;;5092303;28;20477;-82
2024/01/08 11:01:09;;;;;;;4.78;2.22;;;0.60;99.90;;;;;;5092937;28;20126;-82
2024/01/08 11:03:36;;;;;;;6.63;2.83;;;0.70;99.90;;;;;;5093472;28;20047;-81
2024/01/08 11:06:03;;;;;;;5.63;2.60;;;0.70;99.90;;;;;;5092937;28;20071;-85
2024/01/08 11:08:31;;;;;;;6.57;2.97;;;0.70;99.90;;;;;;5092481;28;20058;-83
2024/01/08 11:11:06;;;;;;;6.38;2.95;;;0.70;99.90;;;;;;5092793;28;20109;-86
2024/01/08 11:13:31;;;;;;;5.35;2.35;;;0.70;99.90;;;;;;5092808;28;20455;-82
2024/01/08 11:16:04;;;;;;;6.40;2.60;;;0.80;99.90;;;;;;5093125;28;20063;-82
2024/01/08 11:18:29;;;;;;;5.05;2.75;;;0.80;99.90;;;;;;5092248;28;20127;-84
2024/01/08 11:20:56;;;;;;;6.30;2.90;;;0.90;99.90;;;;;;5092664;28;20123;-83
2024/01/08 11:23:39;;;;;;;8.00;2.88;;;0.90;99.90;;;;;;5093225;28;20101;-83
2024/01/08 11:26:08;;;;;;;7.13;3.08;;;0.90;99.90;;;;;;5092310;28;20462;-81
2024/01/08 11:28:36;;;;;;;6.57;3.05;;;0.90;99.90;;;;;;5091640;28;20056;-83
2024/01/08 11:31:23;;;;;;;7.55;2.67;;;1.00;99.90;;;;;;5092370;28;20144;-83
2024/01/08 11:34:30;;;;;;;6.30;3.15;;;0.90;99.90;;;;;;5091883;28;20127;-83
2024/01/08 11:37:29;;;;;;;6.57;3.03;;;0.90;99.90;;;;;;5091371;28;20056;-87
2024/01/08 11:39:55;;;;;;;7.35;2.58;;;0.90;99.90;;;;;;5088254;28;20117;-84
2024/01/08 11:42:22;;;;;;;7.07;2.70;;;0.90;99.90;;;;;;5092894;28;20131;-82
2024/01/08 11:44:49;;;;;;;8.10;3.03;;;0.90;99.90;;;;;;5093357;28;20470;-83
2024/01/08 11:47:15;;;;;;;5.43;2.10;;;0.80;99.90;;;;;;5092633;28;20052;-85
2024/01/08 11:49:41;;;;;;;6.25;2.38;;;0.90;99.90;;;;;;5092865;28;20040;-85
2024/01/08 11:52:08;;;;;;;5.47;2.33;;;0.80;99.90;;;;;;5092457;28;20063;-84
2024/01/08 11:54:34;;;;;;;4.90;1.98;;;0.80;99.90;;;;;;5093217;28;20048;-87
2024/01/08 11:57:05;;;;;;;4.80;1.92;;;0.70;99.90;;;;;;5093265;28;20055;-85
2024/01/08 11:59:35;;;;;;;4.20;2.15;;;0.70;99.90;;;;;;5093460;28;20051;-86
2024/01/08 12:02:19;;;;;;;5.07;2.33;;;0.80;99.90;;;;;;5092245;28;20060;-82
2024/01/08 12:04:57;;;;;;;6.25;2.55;;;0.70;99.90;;;;;;5093457;28;20040;-82
2024/01/08 12:07:25;;;;;;;5.97;2.78;;;0.70;99.90;;;;;;5093387;28;20063;-79
2024/01/08 12:09:51;;;;;;;6.00;2.70;;;0.70;99.90;;;;;;5093147;28;20504;-81
2024/01/08 12:12:18;;;;;;;6.38;2.80;;;0.70;99.90;;;;;;5089158;28;20127;-78
2024/01/08 12:14:46;;;;;;;6.85;2.95;;;0.80;99.90;;;;;;5091985;28;20483;-82
2024/01/08 12:17:13;;;;;;;5.65;2.75;;;0.90;99.90;;;;;;5073842;28;20074;-79
2024/01/08 12:19:42;;;;;;;5.45;2.75;;;0.80;99.90;;;;;;5092226;28;20509;-79
2024/01/08 12:22:12;;;;;;;7.95;3.10;;;0.90;99.90;;;;;;5091375;28;20043;-78
2024/01/08 12:24:40;;;;;;;7.50;2.80;;;0.90;99.90;;;;;;5091757;28;20052;-78
2024/01/08 12:27:07;;;;;;;6.00;2.50;;;0.90;99.90;;;;;;5092065;28;20048;-78
2024/01/08 12:29:41;;;;;;;9.38;2.72;;;1.00;99.90;;;;;;5092444;28;20051;-79
2024/01/08 12:32:11;;;;;;;6.32;2.90;;;1.00;99.90;;;;;;5091174;28;20119;-78
2024/01/08 12:34:39;;;;;;;5.22;2.72;;;0.90;99.90;;;;;;5091791;28;20055;-77
2024/01/08 12:37:06;;;;;;;6.05;3.00;;;0.90;99.90;;;;;;5091421;28;20182;-76
2024/01/08 12:39:36;;;;;;;7.35;2.83;;;0.90;99.90;;;;;;5092576;28;20048;-79
2024/01/08 12:42:20;;;;;;;6.90;2.80;;;0.80;99.90;;;;;;5089883;28;20050;-80
2024/01/08 12:44:48;;;;;;;4.55;2.50;;;0.80;99.90;;;;;;5091428;28;20048;-78